Time;durP1;ratioP1;P1;durP2;ratioP2;P2;SDS_P1;SDS_P2;PMS_P1;PMS_P2;Temp;Humidity;BMP_temperature;BMP_pressure;BME280_temperature;BME280_humidity;BME280_pressure;Samples;Min_cycle;Max_cycle;Signal;HPM_P1;HPM_P2
2023/05/24 00:01:15;;;;;;;19.52;2.70;;;;;;;;;;5045675;28;20056;-79
2023/05/24 00:03:40;;;;;;;7.45;2.08;;;;;;;;;;5061771;28;20131;-78
2023/05/24 00:06:06;;;;;;;10.38;2.60;;;;;;;;;;5061935;28;20092;-77
2023/05/24 00:08:34;;;;;;;13.00;2.60;;;;;;;;;;5046793;28;20550;-78
2023/05/24 00:10:59;;;;;;;8.15;2.22;;;;;;;;;;5048667;28;20029;-79
2023/05/24 00:13:25;;;;;;;10.40;2.72;;;;;;;;;;5066471;28;20027;-79
2023/05/24 00:15:51;;;;;;;11.60;2.75;;;;;;;;;;5066569;28;20507;-79
2023/05/24 00:18:17;;;;;;;9.23;2.83;;;;;;;;;;5066030;28;20021;-78
2023/05/24 00:20:42;;;;;;;9.65;2.53;;;;;;;;;;5065551;28;20021;-78
2023/05/24 00:23:08;;;;;;;13.43;2.67;;;;;;;;;;5048332;28;20025;-78
2023/05/24 00:25:33;;;;;;;13.98;2.90;;;;;;;;;;5066572;28;20024;-79
2023/05/24 00:27:58;;;;;;;9.23;2.50;;;;;;;;;;5065922;28;20333;-77
2023/05/24 00:30:24;;;;;;;15.13;3.13;;;;;;;;;;5064958;28;20399;-78
2023/05/24 00:32:49;;;;;;;9.95;2.20;;;;;;;;;;5065177;28;20641;-79
2023/05/24 00:35:14;;;;;;;11.33;2.20;;;;;;;;;;5065423;28;20029;-78
2023/05/24 00:37:43;;;;;;;9.77;2.83;;;;;;;;;;5065838;28;20262;-79
2023/05/24 00:40:09;;;;;;;11.32;2.10;;;;;;;;;;5047153;28;20025;-78
2023/05/24 00:42:34;;;;;;;7.55;2.30;;;;;;;;;;5065425;28;20388;-78
2023/05/24 00:44:59;;;;;;;8.20;2.03;;;;;;;;;;5065621;28;20059;-78
2023/05/24 00:47:25;;;;;;;11.23;2.60;;;;;;;;;;5063182;28;20033;-77
2023/05/24 00:49:50;;;;;;;8.93;2.80;;;;;;;;;;5063302;28;20260;-79
2023/05/24 00:52:16;;;;;;;7.55;2.08;;;;;;;;;;5063349;28;20033;-78
2023/05/24 00:54:42;;;;;;;8.85;2.20;;;;;;;;;;5062723;28;20154;-78
2023/05/24 00:57:08;;;;;;;9.52;2.42;;;;;;;;;;5061770;28;20051;-78
2023/05/24 00:59:33;;;;;;;12.95;2.42;;;;;;;;;;5063377;28;20025;-78
2023/05/24 01:01:59;;;;;;;9.05;2.25;;;;;;;;;;5062936;28;20035;-78
2023/05/24 01:04:24;;;;;;;10.50;2.08;;;;;;;;;;5062298;28;20025;-79
2023/05/24 01:07:08;;;;;;;12.25;2.28;;;;;;;;;;5064754;28;20029;-79
2023/05/24 01:09:49;;;;;;;8.07;2.00;;;;;;;;;;5044038;28;20420;-78
2023/05/24 01:12:42;;;;;;;9.40;2.20;;;;;;;;;;5062083;28;20029;-78
2023/05/24 01:15:21;;;;;;;9.98;2.00;;;;;;;;;;5063621;28;20028;-79
2023/05/24 01:18:01;;;;;;;12.77;2.58;;;;;;;;;;5064575;28;20496;-79
2023/05/24 01:20:31;;;;;;;13.25;1.90;;;;;;;;;;5045575;28;20056;-78
2023/05/24 01:23:06;;;;;;;11.18;2.13;;;;;;;;;;5064475;28;20028;-78
2023/05/24 01:26:13;;;;;;;11.35;2.05;;;;;;;;;;5064432;28;20020;-78
2023/05/24 01:28:39;;;;;;;10.85;2.13;;;;;;;;;;5045500;28;20028;-79
2023/05/24 01:31:05;;;;;;;7.32;2.00;;;;;;;;;;5064997;28;20032;-79
2023/05/24 01:33:31;;;;;;;10.07;2.20;;;;;;;;;;5064859;28;20025;-78
2023/05/24 01:35:56;;;;;;;8.43;2.35;;;;;;;;;;5029941;28;20037;-78
2023/05/24 01:38:22;;;;;;;9.85;2.13;;;;;;;;;;5045673;28;20037;-79
2023/05/24 01:40:51;;;;;;;11.55;2.08;;;;;;;;;;5047187;28;20392;-79
2023/05/24 01:43:28;;;;;;;7.25;1.98;;;;;;;;;;5049316;28;20439;-79
2023/05/24 01:46:16;;;;;;;6.75;2.25;;;;;;;;;;5051804;28;20031;-79
2023/05/24 01:48:48;;;;;;;8.40;1.80;;;;;;;;;;5069520;28;20021;-78
2023/05/24 01:51:18;;;;;;;9.38;2.03;;;;;;;;;;5069247;28;20080;-79
2023/05/24 01:53:46;;;;;;;9.20;1.95;;;;;;;;;;5069083;28;20100;-78
2023/05/24 01:56:12;;;;;;;11.90;2.20;;;;;;;;;;5068244;28;20032;-78
2023/05/24 01:58:40;;;;;;;9.55;1.95;;;;;;;;;;5068248;28;20025;-78
2023/05/24 02:01:05;;;;;;;10.65;2.00;;;;;;;;;;5050508;28;20504;-79
2023/05/24 02:03:31;;;;;;;5.07;1.63;;;;;;;;;;5051348;28;20112;-79
2023/05/24 02:05:56;;;;;;;8.23;1.83;;;;;;;;;;5050506;28;20021;-79
2023/05/24 02:08:21;;;;;;;11.05;2.28;;;;;;;;;;5069082;28;20021;-79
2023/05/24 02:10:47;;;;;;;14.02;2.08;;;;;;;;;;5068507;28;20119;-79
2023/05/24 02:13:12;;;;;;;10.40;2.10;;;;;;;;;;5068780;28;20067;-79
2023/05/24 02:15:40;;;;;;;10.70;2.28;;;;;;;;;;5049678;28;20028;-77
2023/05/24 02:18:06;;;;;;;6.95;2.15;;;;;;;;;;5067400;28;20053;-78
2023/05/24 02:20:35;;;;;;;8.30;2.10;;;;;;;;;;5048656;28;20467;-78
2023/05/24 02:23:01;;;;;;;8.65;1.90;;;;;;;;;;5063865;28;20024;-77
2023/05/24 02:25:26;;;;;;;9.65;2.05;;;;;;;;;;5050505;28;20028;-78
2023/05/24 02:27:52;;;;;;;12.48;2.15;;;;;;;;;;5044439;28;20043;-79
2023/05/24 02:30:17;;;;;;;9.37;1.63;;;;;;;;;;5060367;28;20464;-78
2023/05/24 02:32:42;;;;;;;10.82;2.13;;;;;;;;;;5044597;28;20792;-79
2023/05/24 02:35:08;;;;;;;6.90;1.70;;;;;;;;;;5043579;28;20025;-77
2023/05/24 02:37:33;;;;;;;13.40;2.05;;;;;;;;;;5060982;28;20507;-79
2023/05/24 02:39:58;;;;;;;10.23;1.93;;;;;;;;;;5061678;28;20029;-79
2023/05/24 02:42:23;;;;;;;7.65;2.08;;;;;;;;;;5068883;28;20365;-78
2023/05/24 02:44:51;;;;;;;6.40;1.70;;;;;;;;;;5066693;28;20036;-78
2023/05/24 02:47:17;;;;;;;10.15;2.20;;;;;;;;;;5063779;28;20059;-77
2023/05/24 02:49:42;;;;;;;12.38;1.90;;;;;;;;;;5058352;28;20028;-78
2023/05/24 02:52:07;;;;;;;9.98;1.85;;;;;;;;;;5043160;28;20021;-77
2023/05/24 02:54:33;;;;;;;10.85;2.08;;;;;;;;;;5045828;28;20499;-78
2023/05/24 02:56:58;;;;;;;11.00;2.05;;;;;;;;;;5062468;28;20112;-79
2023/05/24 02:59:24;;;;;;;10.93;2.00;;;;;;;;;;5046388;28;20036;-80
2023/05/24 03:01:49;;;;;;;8.10;1.85;;;;;;;;;;5046877;28;20262;-78
2023/05/24 03:04:15;;;;;;;10.63;2.25;;;;;;;;;;5064830;28;20029;-80
2023/05/24 03:06:40;;;;;;;8.05;1.80;;;;;;;;;;5048217;28;20020;-80
2023/05/24 03:09:05;;;;;;;11.02;2.17;;;;;;;;;;5063536;28;20044;-78
2023/05/24 03:11:31;;;;;;;6.50;1.75;;;;;;;;;;5063386;28;20069;-78
2023/05/24 03:13:56;;;;;;;12.82;2.03;;;;;;;;;;5047982;28;20029;-79
2023/05/24 03:16:21;;;;;;;16.43;2.23;;;;;;;;;;5048634;28;20029;-79
2023/05/24 03:18:49;;;;;;;12.32;2.20;;;;;;;;;;5066613;28;20254;-78
2023/05/24 03:21:15;;;;;;;10.25;2.00;;;;;;;;;;5066869;28;20454;-79
2023/05/24 03:23:41;;;;;;;9.35;1.98;;;;;;;;;;5048485;28;20052;-78
2023/05/24 03:26:06;;;;;;;10.18;2.15;;;;;;;;;;5064551;28;20080;-78
2023/05/24 03:28:32;;;;;;;10.50;1.90;;;;;;;;;;5063431;28;20021;-79
2023/05/24 03:30:58;;;;;;;7.00;1.70;;;;;;;;;;5065881;28;20258;-79
2023/05/24 03:33:23;;;;;;;11.30;2.05;;;;;;;;;;5062998;28;20484;-78
2023/05/24 03:35:48;;;;;;;7.47;2.00;;;;;;;;;;5063862;28;20029;-78
2023/05/24 03:38:13;;;;;;;6.65;1.70;;;;;;;;;;5062791;28;20351;-78
2023/05/24 03:40:39;;;;;;;14.77;2.53;;;;;;;;;;5064432;28;20016;-77
2023/05/24 03:43:04;;;;;;;11.50;1.83;;;;;;;;;;5063341;28;20269;-77
2023/05/24 03:45:37;;;;;;;8.25;2.15;;;;;;;;;;5046536;28;20250;-78
2023/05/24 03:48:02;;;;;;;9.20;1.67;;;;;;;;;;5063518;28;20021;-74
2023/05/24 03:50:27;;;;;;;7.30;1.98;;;;;;;;;;5065130;28;20021;-78
2023/05/24 03:52:52;;;;;;;7.07;1.63;;;;;;;;;;5062033;28;20059;-77
2023/05/24 03:55:18;;;;;;;7.60;2.10;;;;;;;;;;5061310;28;20254;-78
2023/05/24 03:57:43;;;;;;;9.95;2.40;;;;;;;;;;5061101;28;20307;-78
2023/05/24 04:00:09;;;;;;;9.30;2.30;;;;;;;;;;5058183;28;20029;-78
2023/05/24 04:02:36;;;;;;;8.85;1.90;;;;;;;;;;5063517;28;20618;-78
2023/05/24 04:05:02;;;;;;;10.73;2.00;;;;;;;;;;5065996;28;20021;-78
2023/05/24 04:07:28;;;;;;;7.80;1.95;;;;;;;;;;5065865;28;20040;-78
2023/05/24 04:09:53;;;;;;;12.57;1.70;;;;;;;;;;5065501;28;20021;-78
2023/05/24 04:12:18;;;;;;;8.97;1.70;;;;;;;;;;5056516;28;20360;-78
2023/05/24 04:14:43;;;;;;;11.90;2.17;;;;;;;;;;5061425;28;20258;-78
2023/05/24 04:17:08;;;;;;;10.18;1.70;;;;;;;;;;5038236;28;20310;-77
2023/05/24 04:19:34;;;;;;;16.23;2.08;;;;;;;;;;5035492;28;20396;-77
2023/05/24 04:21:59;;;;;;;9.13;1.93;;;;;;;;;;5052911;28;20021;-76
2023/05/24 04:24:24;;;;;;;6.47;1.52;;;;;;;;;;5052877;28;20254;-77
2023/05/24 04:26:50;;;;;;;10.13;2.00;;;;;;;;;;5037721;28;20028;-78
2023/05/24 04:29:15;;;;;;;13.00;1.70;;;;;;;;;;5064126;28;20254;-79
2023/05/24 04:31:43;;;;;;;7.27;1.83;;;;;;;;;;5063760;28;20028;-79
2023/05/24 04:34:12;;;;;;;9.35;2.00;;;;;;;;;;5044141;28;20262;-79
2023/05/24 04:36:37;;;;;;;9.57;2.03;;;;;;;;;;5063395;28;20021;-79
2023/05/24 04:39:03;;;;;;;10.57;2.00;;;;;;;;;;5063546;28;20044;-79
2023/05/24 04:41:30;;;;;;;6.28;1.80;;;;;;;;;;5045554;28;20064;-79
2023/05/24 04:43:58;;;;;;;5.30;1.70;;;;;;;;;;5045495;28;20017;-79
2023/05/24 04:46:24;;;;;;;7.78;2.15;;;;;;;;;;5064411;28;20021;-79
2023/05/24 04:48:50;;;;;;;12.18;1.90;;;;;;;;;;5063196;28;20032;-79
2023/05/24 04:51:15;;;;;;;6.57;1.93;;;;;;;;;;5044804;28;20033;-79
2023/05/24 04:53:40;;;;;;;7.97;2.13;;;;;;;;;;5063233;28;20311;-80
2023/05/24 04:56:05;;;;;;;11.90;2.00;;;;;;;;;;5045915;28;20424;-79
2023/05/24 04:58:32;;;;;;;10.40;1.70;;;;;;;;;;5046332;28;20625;-79
2023/05/24 05:00:57;;;;;;;6.43;2.10;;;;;;;;;;5063801;28;20053;-78
2023/05/24 05:03:22;;;;;;;9.33;1.97;;;;;;;;;;5064086;28;20369;-79
2023/05/24 05:05:47;;;;;;;8.90;2.10;;;;;;;;;;5062324;28;20249;-79
2023/05/24 05:08:12;;;;;;;7.90;1.80;;;;;;;;;;5064034;28;20599;-78
2023/05/24 05:10:38;;;;;;;6.38;1.55;;;;;;;;;;5063373;28;20628;-79
2023/05/24 05:13:03;;;;;;;9.82;2.10;;;;;;;;;;5046678;28;20022;-79
2023/05/24 05:15:29;;;;;;;11.60;2.20;;;;;;;;;;5063749;28;20396;-79
2023/05/24 05:17:54;;;;;;;7.75;1.98;;;;;;;;;;5065540;28;20504;-80
2023/05/24 05:20:21;;;;;;;14.30;2.10;;;;;;;;;;5065502;28;20036;-79
2023/05/24 05:22:47;;;;;;;13.52;2.45;;;;;;;;;;5064442;28;20032;-79
2023/05/24 05:25:12;;;;;;;9.57;2.03;;;;;;;;;;5066632;28;20028;-80
2023/05/24 05:27:38;;;;;;;12.05;2.03;;;;;;;;;;5065122;28;20088;-80
2023/05/24 05:30:03;;;;;;;8.33;2.07;;;;;;;;;;5065312;28;20036;-79
2023/05/24 05:32:29;;;;;;;6.70;1.80;;;;;;;;;;5065615;28;20335;-79
2023/05/24 05:34:54;;;;;;;9.32;2.25;;;;;;;;;;5048304;28;20025;-81
2023/05/24 05:37:19;;;;;;;6.23;1.50;;;;;;;;;;5064638;28;20550;-81
2023/05/24 05:39:44;;;;;;;10.85;2.10;;;;;;;;;;5059926;28;20725;-76
2023/05/24 05:42:09;;;;;;;9.10;1.70;;;;;;;;;;5041791;28;20029;-78
2023/05/24 05:44:35;;;;;;;7.45;1.85;;;;;;;;;;5061004;28;20396;-78
2023/05/24 05:47:00;;;;;;;7.18;1.55;;;;;;;;;;5058316;28;20021;-78
2023/05/24 05:49:26;;;;;;;8.93;1.90;;;;;;;;;;5062910;28;20024;-79
2023/05/24 05:51:51;;;;;;;6.55;1.83;;;;;;;;;;5060402;28;20055;-78
2023/05/24 05:54:17;;;;;;;12.27;2.10;;;;;;;;;;5042005;28;20043;-78
2023/05/24 05:56:46;;;;;;;6.82;2.03;;;;;;;;;;5063065;28;20088;-77
2023/05/24 05:59:13;;;;;;;8.35;1.88;;;;;;;;;;5063222;28;20481;-78
2023/05/24 06:01:38;;;;;;;11.70;1.95;;;;;;;;;;5063856;28;20495;-78
2023/05/24 06:04:04;;;;;;;18.90;2.60;;;;;;;;;;5063512;28;20033;-78
2023/05/24 06:06:29;;;;;;;6.17;1.90;;;;;;;;;;5059871;28;20052;-77
2023/05/24 06:08:54;;;;;;;9.80;2.13;;;;;;;;;;5057341;28;20258;-75
2023/05/24 06:11:20;;;;;;;11.65;2.50;;;;;;;;;;5057694;28;20416;-78
2023/05/24 06:13:45;;;;;;;10.07;2.30;;;;;;;;;;5058339;28;20091;-78
2023/05/24 06:16:10;;;;;;;9.75;1.98;;;;;;;;;;5060660;28;20250;-77
2023/05/24 06:18:35;;;;;;;8.45;1.85;;;;;;;;;;5060154;28;20039;-77
2023/05/24 06:21:01;;;;;;;13.43;2.17;;;;;;;;;;5057101;28;20103;-77
2023/05/24 06:23:26;;;;;;;10.75;2.20;;;;;;;;;;5062176;28;20028;-78
2023/05/24 06:25:51;;;;;;;13.93;2.40;;;;;;;;;;5044883;28;20027;-78
2023/05/24 06:28:17;;;;;;;9.27;1.93;;;;;;;;;;5060426;28;20285;-77
2023/05/24 06:30:42;;;;;;;13.00;2.22;;;;;;;;;;5059626;28;20261;-79
2023/05/24 06:33:07;;;;;;;10.30;1.87;;;;;;;;;;5039924;28;20024;-78
2023/05/24 06:35:32;;;;;;;12.17;2.10;;;;;;;;;;5062341;28;20261;-78
2023/05/24 06:37:57;;;;;;;9.03;2.20;;;;;;;;;;5062485;28;20266;-78
2023/05/24 06:40:23;;;;;;;8.45;2.13;;;;;;;;;;5059271;28;20260;-77
2023/05/24 06:42:48;;;;;;;10.03;2.27;;;;;;;;;;5039407;28;20040;-77
2023/05/24 06:45:14;;;;;;;10.40;1.85;;;;;;;;;;5038669;28;20254;-77
2023/05/24 06:47:43;;;;;;;9.38;2.25;;;;;;;;;;5056349;28;20024;-77
2023/05/24 06:50:08;;;;;;;9.77;2.10;;;;;;;;;;5057853;28;20438;-79
2023/05/24 06:52:33;;;;;;;6.88;1.65;;;;;;;;;;5064131;28;20081;-77
2023/05/24 06:54:59;;;;;;;6.45;1.88;;;;;;;;;;5037929;28;20083;-78
2023/05/24 06:57:24;;;;;;;14.93;2.53;;;;;;;;;;5062820;28;20051;-78
2023/05/24 06:59:49;;;;;;;9.32;2.22;;;;;;;;;;5064269;28;20048;-79
2023/05/24 07:02:15;;;;;;;7.43;1.92;;;;;;;;;;5061667;28;20021;-77
2023/05/24 07:04:41;;;;;;;14.65;2.40;;;;;;;;;;5039813;28;20025;-78
2023/05/24 07:07:07;;;;;;;11.93;2.30;;;;;;;;;;5061778;28;20048;-79
2023/05/24 07:09:33;;;;;;;7.00;1.95;;;;;;;;;;5061926;28;20067;-78
2023/05/24 07:11:58;;;;;;;6.97;2.00;;;;;;;;;;5061750;28;20032;-78
2023/05/24 07:14:24;;;;;;;11.20;1.90;;;;;;;;;;5061712;28;20261;-79
2023/05/24 07:16:50;;;;;;;11.75;2.20;;;;;;;;;;5059447;28;20025;-78
2023/05/24 07:19:15;;;;;;;13.38;2.95;;;;;;;;;;5056181;28;20027;-77
2023/05/24 07:21:40;;;;;;;11.73;2.15;;;;;;;;;;5057739;28;20111;-78
2023/05/24 07:24:06;;;;;;;9.80;1.97;;;;;;;;;;5059832;28;20037;-78
2023/05/24 07:26:31;;;;;;;10.57;2.05;;;;;;;;;;5038300;28;20305;-78
2023/05/24 07:28:56;;;;;;;13.10;1.90;;;;;;;;;;5039162;28;20025;-78
2023/05/24 07:31:21;;;;;;;13.57;2.23;;;;;;;;;;5061907;28;20300;-78
2023/05/24 07:33:46;;;;;;;17.17;3.05;;;;;;;;;;5045449;28;20274;-78
2023/05/24 07:36:12;;;;;;;12.80;2.60;;;;;;;;;;5060602;28;20107;-78
2023/05/24 07:38:37;;;;;;;10.13;2.13;;;;;;;;;;5059339;28;20294;-77
2023/05/24 07:41:03;;;;;;;9.02;2.33;;;;;;;;;;5057146;28;20029;-78
2023/05/24 07:43:29;;;;;;;9.80;2.20;;;;;;;;;;5044426;28;20025;-79
2023/05/24 07:45:54;;;;;;;9.23;2.10;;;;;;;;;;5041329;28;20471;-78
2023/05/24 07:48:20;;;;;;;9.63;2.00;;;;;;;;;;5043052;28;20051;-78
2023/05/24 07:50:48;;;;;;;8.80;2.15;;;;;;;;;;5063590;28;20024;-78
2023/05/24 07:53:16;;;;;;;11.80;2.30;;;;;;;;;;5063841;28;20031;-78
2023/05/24 07:55:43;;;;;;;12.48;2.60;;;;;;;;;;5063287;28;20052;-78
2023/05/24 07:58:08;;;;;;;10.23;2.58;;;;;;;;;;5063916;28;20123;-78
2023/05/24 08:00:34;;;;;;;9.63;2.33;;;;;;;;;;5044696;28;20504;-78
2023/05/24 08:03:00;;;;;;;11.88;2.40;;;;;;;;;;5062813;28;20155;-77
2023/05/24 08:05:25;;;;;;;10.70;2.53;;;;;;;;;;5063994;28;20028;-78
2023/05/24 08:07:52;;;;;;;11.50;2.42;;;;;;;;;;5045445;28;20021;-78
2023/05/24 08:10:17;;;;;;;11.70;2.40;;;;;;;;;;5063051;28;20061;-77
2023/05/24 08:12:42;;;;;;;7.80;1.98;;;;;;;;;;5037569;28;20032;-77
2023/05/24 08:15:08;;;;;;;11.20;2.27;;;;;;;;;;5054735;28;20029;-78
2023/05/24 08:17:33;;;;;;;9.07;2.50;;;;;;;;;;5054696;28;20257;-77
2023/05/24 08:19:58;;;;;;;13.77;3.00;;;;;;;;;;5043275;28;20025;-78
2023/05/24 08:22:24;;;;;;;8.60;2.30;;;;;;;;;;5058748;28;20519;-78
2023/05/24 08:24:51;;;;;;;13.02;2.70;;;;;;;;;;5057781;28;20609;-78
2023/05/24 08:27:16;;;;;;;11.50;2.42;;;;;;;;;;5057532;28;20121;-78
2023/05/24 08:29:41;;;;;;;9.20;2.53;;;;;;;;;;5055952;28;20423;-78
2023/05/24 08:32:10;;;;;;;7.73;2.03;;;;;;;;;;5059020;28;20051;-77
2023/05/24 08:34:36;;;;;;;14.50;2.20;;;;;;;;;;5058245;28;20258;-77
2023/05/24 08:37:02;;;;;;;8.88;2.28;;;;;;;;;;5037360;28;20037;-77
2023/05/24 08:39:27;;;;;;;10.45;2.20;;;;;;;;;;5035156;28;20377;-77
2023/05/24 08:41:53;;;;;;;11.53;2.30;;;;;;;;;;5053480;28;20037;-78
2023/05/24 08:44:19;;;;;;;17.40;2.97;;;;;;;;;;5053316;28;20318;-77
2023/05/24 08:46:45;;;;;;;10.02;2.33;;;;;;;;;;5053348;28;20021;-77
2023/05/24 08:49:12;;;;;;;10.40;2.45;;;;;;;;;;5052818;28;20024;-77
2023/05/24 08:51:38;;;;;;;13.70;3.28;;;;;;;;;;5053566;28;20131;-78
2023/05/24 08:54:04;;;;;;;10.65;2.55;;;;;;;;;;5040054;28;20052;-78
2023/05/24 08:56:29;;;;;;;8.77;2.00;;;;;;;;;;5054729;28;20025;-77
2023/05/24 08:58:55;;;;;;;12.93;2.70;;;;;;;;;;5056479;28;20052;-77
2023/05/24 09:01:23;;;;;;;11.43;2.70;;;;;;;;;;5056966;28;20402;-78
2023/05/24 09:03:50;;;;;;;11.55;2.33;;;;;;;;;;5056007;28;20032;-78
2023/05/24 09:06:17;;;;;;;10.90;2.63;;;;;;;;;;5038872;28;20028;-77
2023/05/24 09:08:44;;;;;;;12.43;2.55;;;;;;;;;;5057408;28;20043;-78
2023/05/24 09:11:10;;;;;;;11.93;2.47;;;;;;;;;;5057320;28;20021;-78
2023/05/24 09:13:35;;;;;;;11.77;2.38;;;;;;;;;;5057540;28;20033;-78
2023/05/24 09:16:01;;;;;;;12.48;2.90;;;;;;;;;;5039466;28;20404;-78
2023/05/24 09:18:27;;;;;;;10.43;2.63;;;;;;;;;;5058630;28;20110;-78
2023/05/24 09:20:52;;;;;;;8.07;2.60;;;;;;;;;;5057134;28;20024;-78
2023/05/24 09:23:17;;;;;;;13.05;2.65;;;;;;;;;;5056586;28;20031;-78
2023/05/24 09:25:44;;;;;;;12.10;3.00;;;;;;;;;;5058823;28;20090;-78
2023/05/24 09:28:13;;;;;;;10.80;2.80;;;;;;;;;;5059012;28;20053;-77
2023/05/24 09:30:38;;;;;;;10.75;2.53;;;;;;;;;;5058847;28;20112;-78
2023/05/24 09:33:07;;;;;;;10.55;2.47;;;;;;;;;;5057286;28;20512;-77
2023/05/24 09:35:32;;;;;;;9.50;2.50;;;;;;;;;;5036071;28;20468;-77
2023/05/24 09:38:01;;;;;;;10.07;2.33;;;;;;;;;;5038236;28;20032;-78
2023/05/24 09:40:27;;;;;;;12.82;2.78;;;;;;;;;;5057713;28;20033;-78
2023/05/24 09:43:07;;;;;;;12.40;2.80;;;;;;;;;;5041047;28;20447;-77
2023/05/24 09:45:38;;;;;;;13.63;2.58;;;;;;;;;;5058057;28;20017;-77
2023/05/24 09:48:09;;;;;;;11.65;2.67;;;;;;;;;;5052585;28;20083;-77
2023/05/24 09:50:35;;;;;;;12.82;2.65;;;;;;;;;;5053320;28;20025;-77
2023/05/24 09:53:02;;;;;;;14.07;2.78;;;;;;;;;;5053917;28;20055;-77
2023/05/24 09:55:27;;;;;;;13.48;2.53;;;;;;;;;;5057979;28;20368;-77
2023/05/24 09:58:04;;;;;;;11.32;2.53;;;;;;;;;;5053848;28;20074;-77
2023/05/24 10:00:35;;;;;;;13.88;2.95;;;;;;;;;;5058032;28;20029;-79
2023/05/24 10:03:09;;;;;;;11.07;2.92;;;;;;;;;;5062868;28;20017;-78
2023/05/24 10:05:35;;;;;;;9.23;2.50;;;;;;;;;;5059542;28;20021;-77
2023/05/24 10:08:01;;;;;;;7.97;2.45;;;;;;;;;;5060119;28;20052;-78
2023/05/24 10:10:28;;;;;;;13.05;2.80;;;;;;;;;;5060313;28;20025;-78
2023/05/24 10:12:55;;;;;;;10.98;2.75;;;;;;;;;;5038571;28;20497;-77
2023/05/24 10:15:20;;;;;;;10.52;2.60;;;;;;;;;;5056895;28;20510;-77
2023/05/24 10:17:46;;;;;;;13.13;2.83;;;;;;;;;;5058179;28;20025;-77
2023/05/24 10:20:11;;;;;;;14.65;3.17;;;;;;;;;;5061441;28;20025;-77
2023/05/24 10:22:42;;;;;;;14.88;3.28;;;;;;;;;;5062972;28;20051;-79
2023/05/24 10:25:11;;;;;;;13.18;2.67;;;;;;;;;;5059239;28;20025;-78
2023/05/24 10:27:37;;;;;;;14.80;2.95;;;;;;;;;;5043540;28;20024;-77
2023/05/24 10:30:36;;;;;;;12.75;2.95;;;;;;;;;;5043736;28;20028;-77
2023/05/24 10:33:05;;;;;;;11.43;2.85;;;;;;;;;;5059173;28;20051;-78
2023/05/24 10:35:31;;;;;;;10.70;2.80;;;;;;;;;;5064273;28;20143;-78
2023/05/24 10:37:56;;;;;;;9.23;2.40;;;;;;;;;;5046519;28;20033;-78
2023/05/24 10:40:24;;;;;;;12.80;2.70;;;;;;;;;;5063639;28;20036;-78
2023/05/24 10:42:50;;;;;;;13.25;2.50;;;;;;;;;;5059020;28;20071;-78
2023/05/24 10:45:21;;;;;;;14.68;2.72;;;;;;;;;;5061753;28;20085;-78
2023/05/24 10:47:47;;;;;;;15.10;2.80;;;;;;;;;;5064609;28;20036;-77
2023/05/24 10:50:17;;;;;;;15.05;2.92;;;;;;;;;;5064498;28;20028;-77
2023/05/24 10:52:42;;;;;;;11.90;2.80;;;;;;;;;;5064376;28;20097;-78
2023/05/24 10:55:09;;;;;;;12.15;3.17;;;;;;;;;;5059903;28;20037;-78
2023/05/24 10:57:35;;;;;;;7.88;2.53;;;;;;;;;;5058413;28;20048;-78
2023/05/24 11:00:19;;;;;;;11.95;2.60;;;;;;;;;;5057991;28;20086;-78
2023/05/24 11:02:48;;;;;;;11.38;2.90;;;;;;;;;;5057446;28;20052;-78
2023/05/24 11:05:14;;;;;;;14.75;3.10;;;;;;;;;;5058705;28;20051;-78
2023/05/24 11:07:43;;;;;;;13.27;2.58;;;;;;;;;;5058075;28;20025;-78
2023/05/24 11:10:14;;;;;;;9.82;2.60;;;;;;;;;;5057127;28;20485;-78
2023/05/24 11:12:40;;;;;;;12.40;3.30;;;;;;;;;;5038245;28;20036;-77
2023/05/24 11:15:08;;;;;;;12.15;2.80;;;;;;;;;;5054973;28;20060;-78
2023/05/24 11:18:05;;;;;;;6.03;2.00;;;;;;;;;;5037549;28;20055;-78
2023/05/24 11:20:31;;;;;;;10.50;2.80;;;;;;;;;;5036977;28;20020;-78
2023/05/24 11:22:58;;;;;;;10.57;2.83;;;;;;;;;;5040275;28;20031;-79
2023/05/24 11:25:24;;;;;;;11.07;2.67;;;;;;;;;;5043576;28;20025;-79
2023/05/24 11:27:50;;;;;;;10.88;2.35;;;;;;;;;;5057798;28;20043;-78
2023/05/24 11:30:17;;;;;;;11.80;2.47;;;;;;;;;;5057899;28;20037;-79
2023/05/24 11:32:47;;;;;;;8.85;2.50;;;;;;;;;;5057842;28;20049;-79
2023/05/24 11:35:13;;;;;;;11.18;2.53;;;;;;;;;;5060357;28;20036;-79
2023/05/24 11:37:38;;;;;;;15.57;3.00;;;;;;;;;;5039181;28;20028;-77
2023/05/24 11:40:04;;;;;;;7.13;2.45;;;;;;;;;;5038870;28;20617;-78
2023/05/24 11:42:29;;;;;;;13.88;3.17;;;;;;;;;;5038310;28;20028;-78
2023/05/24 11:44:55;;;;;;;9.50;2.33;;;;;;;;;;5056209;28;20021;-79
2023/05/24 11:47:21;;;;;;;12.98;2.88;;;;;;;;;;5056680;28;20104;-78
2023/05/24 11:49:50;;;;;;;10.52;2.60;;;;;;;;;;5057180;28;20028;-78
2023/05/24 11:52:16;;;;;;;9.90;2.60;;;;;;;;;;5056108;28;20064;-78
2023/05/24 11:54:41;;;;;;;7.72;2.28;;;;;;;;;;5039512;28;20025;-79
2023/05/24 11:57:11;;;;;;;10.10;2.30;;;;;;;;;;5056201;28;20395;-79
2023/05/24 11:59:37;;;;;;;11.30;2.65;;;;;;;;;;5039010;28;20328;-78
2023/05/24 12:02:04;;;;;;;11.45;3.10;;;;;;;;;;5056408;28;20028;-76
2023/05/24 12:04:30;;;;;;;11.18;2.83;;;;;;;;;;5058193;28;20052;-79
2023/05/24 12:06:56;;;;;;;12.50;3.00;;;;;;;;;;5057138;28;20060;-78
2023/05/24 12:09:22;;;;;;;12.48;3.05;;;;;;;;;;5041114;28;20024;-78
2023/05/24 12:11:49;;;;;;;9.05;2.92;;;;;;;;;;5056867;28;20476;-77
2023/05/24 12:14:26;;;;;;;16.67;3.13;;;;;;;;;;5059172;28;20035;-78
2023/05/24 12:16:54;;;;;;;11.68;2.65;;;;;;;;;;5055618;28;20480;-77
2023/05/24 12:19:21;;;;;;;11.93;2.80;;;;;;;;;;5038182;28;20488;-76
2023/05/24 12:21:48;;;;;;;12.13;3.13;;;;;;;;;;5055764;28;20041;-78
2023/05/24 12:24:15;;;;;;;10.13;3.13;;;;;;;;;;5054334;28;20021;-77
2023/05/24 12:26:45;;;;;;;11.88;2.97;;;;;;;;;;5053446;28;20052;-77
2023/05/24 12:29:11;;;;;;;11.27;2.78;;;;;;;;;;5054710;28;20112;-78
2023/05/24 12:31:40;;;;;;;7.00;2.38;;;;;;;;;;5055895;28;20068;-76
2023/05/24 12:34:17;;;;;;;12.07;2.80;;;;;;;;;;5056468;28;20031;-78
2023/05/24 12:36:43;;;;;;;9.70;2.78;;;;;;;;;;5057536;28;20070;-78
2023/05/24 12:39:30;;;;;;;12.68;2.92;;;;;;;;;;5058008;28;20040;-77
2023/05/24 12:41:56;;;;;;;10.68;3.10;;;;;;;;;;5057467;28;20029;-78
2023/05/24 12:44:35;;;;;;;11.85;2.92;;;;;;;;;;5058324;28;20024;-75
2023/05/24 12:47:01;;;;;;;8.40;2.72;;;;;;;;;;5058040;28;20021;-77
2023/05/24 12:49:27;;;;;;;12.00;2.75;;;;;;;;;;5059115;28;20400;-78
2023/05/24 12:51:54;;;;;;;14.90;3.22;;;;;;;;;;5043246;28;20024;-78
2023/05/24 12:54:22;;;;;;;9.43;3.03;;;;;;;;;;5043632;28;20055;-79
2023/05/24 12:56:47;;;;;;;10.82;3.17;;;;;;;;;;5058707;28;20107;-78
2023/05/24 12:59:12;;;;;;;9.05;2.72;;;;;;;;;;5058052;28;20059;-78
2023/05/24 13:01:38;;;;;;;13.65;2.72;;;;;;;;;;5057031;28;20060;-78
2023/05/24 13:04:03;;;;;;;9.88;2.75;;;;;;;;;;5056544;28;20021;-79
2023/05/24 13:06:28;;;;;;;8.85;2.47;;;;;;;;;;5054483;28;20025;-78
2023/05/24 13:08:54;;;;;;;14.97;2.87;;;;;;;;;;5059923;28;20032;-78
2023/05/24 13:11:19;;;;;;;10.32;2.60;;;;;;;;;;5057391;28;20307;-77
2023/05/24 13:13:44;;;;;;;10.80;2.90;;;;;;;;;;5041027;28;20075;-78
2023/05/24 13:16:10;;;;;;;11.70;2.97;;;;;;;;;;5057000;28;20032;-78
2023/05/24 13:18:36;;;;;;;10.38;3.20;;;;;;;;;;5038526;28;20492;-78
2023/05/24 13:21:04;;;;;;;10.40;2.70;;;;;;;;;;5058665;28;20107;-78
2023/05/24 13:23:29;;;;;;;10.05;2.88;;;;;;;;;;5041792;28;20041;-78
2023/05/24 13:25:55;;;;;;;15.02;3.08;;;;;;;;;;5059007;28;20025;-78
2023/05/24 13:28:21;;;;;;;15.33;3.20;;;;;;;;;;5058779;28;20031;-78
2023/05/24 13:30:47;;;;;;;11.20;3.08;;;;;;;;;;5058759;28;20709;-78
2023/05/24 13:33:13;;;;;;;11.63;3.00;;;;;;;;;;5041117;28;20500;-78
2023/05/24 13:35:38;;;;;;;9.60;3.00;;;;;;;;;;5058297;28;20078;-78
2023/05/24 13:38:04;;;;;;;9.85;2.65;;;;;;;;;;5042996;28;20040;-77
2023/05/24 13:40:29;;;;;;;11.25;2.90;;;;;;;;;;5061269;28;20075;-77
2023/05/24 13:42:56;;;;;;;12.17;2.57;;;;;;;;;;5060947;28;20028;-77
2023/05/24 13:45:22;;;;;;;8.32;2.88;;;;;;;;;;5043406;28;20254;-78
2023/05/24 13:47:47;;;;;;;7.60;2.88;;;;;;;;;;5062172;28;20029;-77
2023/05/24 13:50:12;;;;;;;11.00;2.58;;;;;;;;;;5045050;28;20511;-78
2023/05/24 13:52:38;;;;;;;12.65;2.47;;;;;;;;;;5062263;28;20112;-78
2023/05/24 13:55:04;;;;;;;13.02;2.88;;;;;;;;;;5058988;28;20021;-77
2023/05/24 13:57:29;;;;;;;8.82;2.75;;;;;;;;;;5059357;28;20028;-78
2023/05/24 13:59:55;;;;;;;10.13;2.90;;;;;;;;;;5044041;28;20310;-77
2023/05/24 14:02:20;;;;;;;10.45;2.40;;;;;;;;;;5056384;28;20435;-77
2023/05/24 14:04:46;;;;;;;13.52;2.95;;;;;;;;;;5043176;28;20024;-77
2023/05/24 14:07:14;;;;;;;7.13;2.30;;;;;;;;;;5059815;28;20033;-77
2023/05/24 14:09:39;;;;;;;10.68;2.67;;;;;;;;;;5061369;28;20265;-77
2023/05/24 14:12:06;;;;;;;10.18;2.80;;;;;;;;;;5057389;28;20455;-78
2023/05/24 14:14:32;;;;;;;11.07;2.97;;;;;;;;;;5058636;28;20039;-77
2023/05/24 14:16:57;;;;;;;14.75;2.90;;;;;;;;;;5056075;28;20033;-77
2023/05/24 14:19:22;;;;;;;10.02;2.97;;;;;;;;;;5056050;28;20032;-77
2023/05/24 14:21:47;;;;;;;13.80;3.30;;;;;;;;;;5056084;28;20392;-78
2023/05/24 14:24:13;;;;;;;11.10;2.55;;;;;;;;;;5056353;28;20309;-77
2023/05/24 14:26:40;;;;;;;10.03;2.73;;;;;;;;;;5056266;28;20025;-77
2023/05/24 14:29:06;;;;;;;12.20;3.10;;;;;;;;;;5056060;28;20338;-77
2023/05/24 14:31:33;;;;;;;11.98;2.97;;;;;;;;;;5055397;28;20044;-78
2023/05/24 14:33:58;;;;;;;8.48;2.78;;;;;;;;;;5037568;28;20086;-77